sensor_id;sensor_type;location;lat;lon;timestamp;pressure;altitude;pressure_sealevel;temperature;humidity
25610;BME280;13479;49.044;8.716;2023-07-31T04:02:00;98842.25;;;17.03;61.05
25610;BME280;13479;49.044;8.716;2023-07-31T04:04:25;98843.94;;;17.04;61.21
25610;BME280;13479;49.044;8.716;2023-07-31T04:06:50;98860.22;;;17.17;60.73
25610;BME280;13479;49.044;8.716;2023-07-31T04:09:16;98886.03;;;17.18;60.70
25610;BME280;13479;49.044;8.716;2023-07-31T04:11:41;98871.34;;;17.14;60.91
25610;BME280;13479;49.044;8.716;2023-07-31T04:14:06;98863.97;;;17.16;60.97
25610;BME280;13479;49.044;8.716;2023-07-31T04:16:32;98863.88;;;17.24;60.80
25610;BME280;13479;49.044;8.716;2023-07-31T04:18:57;98868.09;;;17.42;60.45
25610;BME280;13479;49.044;8.716;2023-07-31T04:21:22;98909.81;;;17.68;59.62
25610;BME280;13479;49.044;8.716;2023-07-31T04:23:47;98929.63;;;17.67;59.63
25610;BME280;13479;49.044;8.716;2023-07-31T04:26:13;98936.25;;;17.79;59.37
25610;BME280;13479;49.044;8.716;2023-07-31T04:28:38;98960.78;;;17.99;58.84
25610;BME280;13479;49.044;8.716;2023-07-31T04:31:03;98940.09;;;18.00;58.75
25610;BME280;13479;49.044;8.716;2023-07-31T04:33:29;98944.13;;;18.19;58.13
25610;BME280;13479;49.044;8.716;2023-07-31T04:35:54;98934.38;;;18.18;58.50
25610;BME280;13479;49.044;8.716;2023-07-31T04:38:20;98937.19;;;18.25;58.16
25610;BME280;13479;49.044;8.716;2023-07-31T04:40:46;98938.19;;;18.24;58.12
25610;BME280;13479;49.044;8.716;2023-07-31T04:43:11;98935.81;;;18.29;57.87
25610;BME280;13479;49.044;8.716;2023-07-31T04:45:37;98936.53;;;18.37;57.26
25610;BME280;13479;49.044;8.716;2023-07-31T04:48:02;98938.03;;;18.40;56.59
25610;BME280;13479;49.044;8.716;2023-07-31T04:50:27;98937.28;;;18.46;55.91
25610;BME280;13479;49.044;8.716;2023-07-31T04:52:52;98917.91;;;18.36;56.66
25610;BME280;13479;49.044;8.716;2023-07-31T04:55:18;98917.34;;;18.41;56.68
25610;BME280;13479;49.044;8.716;2023-07-31T04:57:43;98921.16;;;18.31;56.84
25610;BME280;13479;49.044;8.716;2023-07-31T05:00:08;98881.41;;;18.27;57.75
25610;BME280;13479;49.044;8.716;2023-07-31T05:02:34;98859.47;;;18.23;57.94
25610;BME280;13479;49.044;8.716;2023-07-31T05:04:59;98854.22;;;18.36;57.53
25610;BME280;13479;49.044;8.716;2023-07-31T05:07:24;98888.88;;;18.61;56.52
25610;BME280;13479;49.044;8.716;2023-07-31T05:09:50;98915.03;;;18.67;56.58
25610;BME280;13479;49.044;8.716;2023-07-31T05:12:15;98923.34;;;18.73;56.35
25610;BME280;13479;49.044;8.716;2023-07-31T05:14:40;98919.72;;;18.80;56.69
25610;BME280;13479;49.044;8.716;2023-07-31T05:17:05;98915.44;;;19.01;56.43
25610;BME280;13479;49.044;8.716;2023-07-31T05:19:30;98933.41;;;19.16;56.08
25610;BME280;13479;49.044;8.716;2023-07-31T05:21:56;98917.78;;;19.26;56.24
25610;BME280;13479;49.044;8.716;2023-07-31T05:24:21;98939.16;;;19.56;54.48
25610;BME280;13479;49.044;8.716;2023-07-31T05:26:46;98938.41;;;19.62;54.26
25610;BME280;13479;49.044;8.716;2023-07-31T05:29:12;98934.78;;;19.76;53.98
25610;BME280;13479;49.044;8.716;2023-07-31T05:31:37;98940.00;;;20.28;52.98
25610;BME280;13479;49.044;8.716;2023-07-31T05:34:03;98944.09;;;20.24;52.78
25610;BME280;13479;49.044;8.716;2023-07-31T05:36:29;98929.59;;;20.25;53.05
25610;BME280;13479;49.044;8.716;2023-07-31T05:38:54;98935.72;;;20.41;52.90
25610;BME280;13479;49.044;8.716;2023-07-31T05:41:19;98921.25;;;20.48;52.61
25610;BME280;13479;49.044;8.716;2023-07-31T05:43:44;98927.50;;;20.56;52.70
25610;BME280;13479;49.044;8.716;2023-07-31T05:46:10;98920.47;;;20.61;52.90
25610;BME280;13479;49.044;8.716;2023-07-31T05:48:37;98892.22;;;20.57;54.10
25610;BME280;13479;49.044;8.716;2023-07-31T05:51:02;98888.69;;;20.50;53.90
25610;BME280;13479;49.044;8.716;2023-07-31T05:53:27;98856.53;;;20.48;54.39
25610;BME280;13479;49.044;8.716;2023-07-31T05:55:53;98856.13;;;20.58;53.85
25610;BME280;13479;49.044;8.716;2023-07-31T05:58:18;98860.28;;;20.54;54.53
25610;BME280;13479;49.044;8.716;2023-07-31T06:00:43;98869.84;;;20.57;53.72
25610;BME280;13479;49.044;8.716;2023-07-31T06:03:09;98860.50;;;20.59;54.03
25610;BME280;13479;49.044;8.716;2023-07-31T06:05:34;98869.44;;;20.66;54.06
25610;BME280;13479;49.044;8.716;2023-07-31T06:07:59;98889.03;;;20.82;53.76
25610;BME280;13479;49.044;8.716;2023-07-31T06:10:25;98913.66;;;20.65;53.58
25610;BME280;13479;49.044;8.716;2023-07-31T06:12:51;98872.44;;;20.78;54.19
25610;BME280;13479;49.044;8.716;2023-07-31T06:15:16;98857.44;;;20.69;54.42
25610;BME280;13479;49.044;8.716;2023-07-31T06:17:44;98889.69;;;20.91;53.29
25610;BME280;13479;49.044;8.716;2023-07-31T06:20:09;98930.22;;;21.18;51.90
25610;BME280;13479;49.044;8.716;2023-07-31T06:22:35;98926.53;;;21.25;52.25
25610;BME280;13479;49.044;8.716;2023-07-31T06:25:00;98930.78;;;21.68;50.56
25610;BME280;13479;49.044;8.716;2023-07-31T06:27:26;98939.50;;;21.90;49.34
25610;BME280;13479;49.044;8.716;2023-07-31T06:29:51;98937.00;;;21.89;48.90
25610;BME280;13479;49.044;8.716;2023-07-31T06:32:16;98918.31;;;21.94;49.60
25610;BME280;13479;49.044;8.716;2023-07-31T06:34:41;98911.25;;;22.00;49.94
25610;BME280;13479;49.044;8.716;2023-07-31T06:37:07;98917.84;;;22.17;49.62
25610;BME280;13479;49.044;8.716;2023-07-31T06:39:32;98928.22;;;22.34;48.91
25610;BME280;13479;49.044;8.716;2023-07-31T06:41:57;98937.31;;;22.66;47.65
25610;BME280;13479;49.044;8.716;2023-07-31T06:44:22;98924.19;;;22.70;48.23
25610;BME280;13479;49.044;8.716;2023-07-31T06:46:48;98924.22;;;23.09;48.22
25610;BME280;13479;49.044;8.716;2023-07-31T06:49:13;98932.97;;;23.50;47.10
25610;BME280;13479;49.044;8.716;2023-07-31T06:51:40;98941.53;;;24.04;45.79
25610;BME280;13479;49.044;8.716;2023-07-31T06:54:05;98945.22;;;24.54;43.95
25610;BME280;13479;49.044;8.716;2023-07-31T06:56:31;98940.41;;;24.93;43.85
25610;BME280;13479;49.044;8.716;2023-07-31T06:58:56;98952.25;;;25.29;42.08
25610;BME280;13479;49.044;8.716;2023-07-31T07:01:21;98950.41;;;25.72;41.68
25610;BME280;13479;49.044;8.716;2023-07-31T07:03:46;98958.16;;;26.11;41.29
25610;BME280;13479;49.044;8.716;2023-07-31T07:06:12;98956.50;;;26.10;40.38
25610;BME280;13479;49.044;8.716;2023-07-31T07:08:37;98936.69;;;25.90;41.42
25610;BME280;13479;49.044;8.716;2023-07-31T07:11:02;98952.06;;;25.97;40.68
25610;BME280;13479;49.044;8.716;2023-07-31T07:13:27;98935.75;;;25.97;40.60
25610;BME280;13479;49.044;8.716;2023-07-31T07:15:53;98945.81;;;25.96;40.51
25610;BME280;13479;49.044;8.716;2023-07-31T07:18:18;98935.88;;;26.02;39.98
25610;BME280;13479;49.044;8.716;2023-07-31T07:20:51;98937.56;;;26.15;40.32
25610;BME280;13479;49.044;8.716;2023-07-31T07:23:16;98937.22;;;26.11;40.01
25610;BME280;13479;49.044;8.716;2023-07-31T07:25:42;98933.06;;;26.32;39.97
25610;BME280;13479;49.044;8.716;2023-07-31T07:28:08;98943.78;;;26.63;38.95
25610;BME280;13479;49.044;8.716;2023-07-31T07:30:33;98943.25;;;27.02;37.96
25610;BME280;13479;49.044;8.716;2023-07-31T07:32:59;98946.31;;;27.05;38.34
25610;BME280;13479;49.044;8.716;2023-07-31T07:35:24;98958.56;;;27.20;37.07
25610;BME280;13479;49.044;8.716;2023-07-31T07:37:49;98949.91;;;27.23;37.81
25610;BME280;13479;49.044;8.716;2023-07-31T07:40:18;98963.72;;;27.33;37.44
25610;BME280;13479;49.044;8.716;2023-07-31T07:42:43;98952.22;;;27.31;36.85
25610;BME280;13479;49.044;8.716;2023-07-31T07:45:09;98938.34;;;27.16;37.76
25610;BME280;13479;49.044;8.716;2023-07-31T07:47:34;98925.22;;;27.29;37.89
25610;BME280;13479;49.044;8.716;2023-07-31T07:49:59;98944.28;;;27.58;37.07
25610;BME280;13479;49.044;8.716;2023-07-31T07:52:25;98943.78;;;27.44;37.33
25610;BME280;13479;49.044;8.716;2023-07-31T07:54:50;98946.53;;;27.62;36.45
25610;BME280;13479;49.044;8.716;2023-07-31T07:57:15;98938.09;;;27.46;36.80
25610;BME280;13479;49.044;8.716;2023-07-31T07:59:41;98944.97;;;27.49;36.54
25610;BME280;13479;49.044;8.716;2023-07-31T08:02:07;98938.28;;;27.90;36.47
25610;BME280;13479;49.044;8.716;2023-07-31T08:04:32;98953.09;;;28.12;35.54
25610;BME280;13479;49.044;8.716;2023-07-31T08:06:57;98927.94;;;28.10;36.09
25610;BME280;13479;49.044;8.716;2023-07-31T08:09:22;98938.94;;;28.32;35.75
25610;BME280;13479;49.044;8.716;2023-07-31T08:11:48;98941.34;;;28.28;35.58
25610;BME280;13479;49.044;8.716;2023-07-31T08:14:13;98941.50;;;27.87;35.93
25610;BME280;13479;49.044;8.716;2023-07-31T08:16:38;98925.28;;;27.47;36.38
25610;BME280;13479;49.044;8.716;2023-07-31T08:19:04;98915.03;;;27.08;36.82
25610;BME280;13479;49.044;8.716;2023-07-31T08:21:29;98899.88;;;26.59;37.72
25610;BME280;13479;49.044;8.716;2023-07-31T08:23:54;98875.66;;;26.46;38.53
25610;BME280;13479;49.044;8.716;2023-07-31T08:26:20;98842.22;;;25.98;39.59
25610;BME280;13479;49.044;8.716;2023-07-31T08:28:45;98842.00;;;25.99;39.25
25610;BME280;13479;49.044;8.716;2023-07-31T08:31:11;98820.84;;;25.89;39.75
25610;BME280;13479;49.044;8.716;2023-07-31T08:33:37;98824.09;;;26.27;38.92
25610;BME280;13479;49.044;8.716;2023-07-31T08:36:02;98835.22;;;26.78;38.71
25610;BME280;13479;49.044;8.716;2023-07-31T08:38:28;98863.56;;;26.94;38.29
25610;BME280;13479;49.044;8.716;2023-07-31T08:40:54;98876.31;;;27.23;37.77
25610;BME280;13479;49.044;8.716;2023-07-31T08:43:22;98895.47;;;27.57;36.25
25610;BME280;13479;49.044;8.716;2023-07-31T08:45:50;98904.50;;;27.57;35.40
25610;BME280;13479;49.044;8.716;2023-07-31T08:48:17;98903.16;;;27.60;36.06
25610;BME280;13479;49.044;8.716;2023-07-31T08:50:42;98899.19;;;27.51;36.48
25610;BME280;13479;49.044;8.716;2023-07-31T08:53:08;98903.50;;;27.64;35.95
25610;BME280;13479;49.044;8.716;2023-07-31T08:55:33;98899.34;;;28.12;35.08
25610;BME280;13479;49.044;8.716;2023-07-31T08:57:59;98899.78;;;28.88;34.00
25610;BME280;13479;49.044;8.716;2023-07-31T09:00:25;98911.28;;;30.04;32.71
25610;BME280;13479;49.044;8.716;2023-07-31T09:03:03;98917.78;;;31.05;31.43
25610;BME280;13479;49.044;8.716;2023-07-31T09:05:33;98926.34;;;31.24;29.90
25610;BME280;13479;49.044;8.716;2023-07-31T09:08:02;98907.72;;;31.67;29.63
25610;BME280;13479;49.044;8.716;2023-07-31T09:10:28;98935.44;;;31.40;30.07
25610;BME280;13479;49.044;8.716;2023-07-31T09:12:54;98930.19;;;31.38;30.09
25610;BME280;13479;49.044;8.716;2023-07-31T09:15:20;98931.41;;;32.86;28.55
25610;BME280;13479;49.044;8.716;2023-07-31T09:17:46;98922.25;;;34.39;26.41
25610;BME280;13479;49.044;8.716;2023-07-31T09:20:21;98942.44;;;36.26;24.90
25610;BME280;13479;49.044;8.716;2023-07-31T09:22:47;98942.81;;;37.31;22.67
25610;BME280;13479;49.044;8.716;2023-07-31T09:25:20;98943.81;;;37.94;22.16
25610;BME280;13479;49.044;8.716;2023-07-31T09:27:52;98939.75;;;37.18;22.30
25610;BME280;13479;49.044;8.716;2023-07-31T09:30:18;98934.91;;;37.61;22.38
25610;BME280;13479;49.044;8.716;2023-07-31T09:32:44;98930.88;;;37.90;22.19
25610;BME280;13479;49.044;8.716;2023-07-31T09:37:56;98931.09;;;37.34;22.07
25610;BME280;13479;49.044;8.716;2023-07-31T09:42:59;98930.72;;;36.62;22.74
25610;BME280;13479;49.044;8.716;2023-07-31T09:45:25;98925.38;;;36.66;22.66
25610;BME280;13479;49.044;8.716;2023-07-31T09:47:51;98915.63;;;36.82;22.42
25610;BME280;13479;49.044;8.716;2023-07-31T09:50:16;98913.63;;;36.46;23.05
25610;BME280;13479;49.044;8.716;2023-07-31T09:52:42;98892.88;;;36.99;22.63
25610;BME280;13479;49.044;8.716;2023-07-31T09:55:08;98903.16;;;36.29;22.93
25610;BME280;13479;49.044;8.716;2023-07-31T09:57:34;98897.91;;;35.66;23.25
25610;BME280;13479;49.044;8.716;2023-07-31T10:00:01;98881.44;;;34.66;24.85
25610;BME280;13479;49.044;8.716;2023-07-31T10:02:26;98866.78;;;34.22;25.06
25610;BME280;13479;49.044;8.716;2023-07-31T10:04:56;98850.16;;;33.78;25.41
25610;BME280;13479;49.044;8.716;2023-07-31T10:07:25;98839.41;;;32.68;26.86
25610;BME280;13479;49.044;8.716;2023-07-31T10:09:51;98835.50;;;32.08;27.22
25610;BME280;13479;49.044;8.716;2023-07-31T10:12:19;98833.66;;;31.78;28.44
25610;BME280;13479;49.044;8.716;2023-07-31T10:14:47;98821.06;;;31.46;28.81
25610;BME280;13479;49.044;8.716;2023-07-31T10:17:13;98812.00;;;31.40;29.22
25610;BME280;13479;49.044;8.716;2023-07-31T10:19:38;98799.91;;;31.05;29.65
25610;BME280;13479;49.044;8.716;2023-07-31T10:22:05;98802.94;;;31.08;29.30
25610;BME280;13479;49.044;8.716;2023-07-31T10:24:31;98797.16;;;30.94;29.50
25610;BME280;13479;49.044;8.716;2023-07-31T10:26:58;98794.97;;;31.02;29.36
25610;BME280;13479;49.044;8.716;2023-07-31T10:29:25;98786.97;;;30.54;29.91
25610;BME280;13479;49.044;8.716;2023-07-31T10:31:52;98779.78;;;30.42;30.34
25610;BME280;13479;49.044;8.716;2023-07-31T10:34:17;98788.44;;;30.24;30.70
25610;BME280;13479;49.044;8.716;2023-07-31T10:36:43;98780.09;;;29.93;30.88
25610;BME280;13479;49.044;8.716;2023-07-31T10:39:37;98786.41;;;29.50;31.93
25610;BME280;13479;49.044;8.716;2023-07-31T10:42:12;98779.97;;;29.02;32.69
25610;BME280;13479;49.044;8.716;2023-07-31T10:44:38;98784.84;;;28.94;33.13
25610;BME280;13479;49.044;8.716;2023-07-31T10:47:08;98776.06;;;28.92;33.31
25610;BME280;13479;49.044;8.716;2023-07-31T10:49:33;98756.13;;;28.64;33.79
25610;BME280;13479;49.044;8.716;2023-07-31T10:51:58;98758.50;;;28.56;34.05
25610;BME280;13479;49.044;8.716;2023-07-31T10:54:24;98745.91;;;28.55;34.66
25610;BME280;13479;49.044;8.716;2023-07-31T10:56:51;98756.47;;;28.46;35.34
25610;BME280;13479;49.044;8.716;2023-07-31T10:59:18;98756.47;;;28.46;34.01
25610;BME280;13479;49.044;8.716;2023-07-31T11:01:55;98734.03;;;28.39;34.19
25610;BME280;13479;49.044;8.716;2023-07-31T11:04:27;98728.81;;;28.64;34.03
25610;BME280;13479;49.044;8.716;2023-07-31T11:07:00;98736.94;;;28.81;33.49
25610;BME280;13479;49.044;8.716;2023-07-31T11:09:31;98737.19;;;28.80;33.82
25610;BME280;13479;49.044;8.716;2023-07-31T11:11:57;98734.53;;;28.90;33.93
25610;BME280;13479;49.044;8.716;2023-07-31T11:14:23;98719.88;;;29.02;34.05
25610;BME280;13479;49.044;8.716;2023-07-31T11:16:51;98737.88;;;28.97;33.06
25610;BME280;13479;49.044;8.716;2023-07-31T11:19:26;98729.47;;;29.04;33.42
25610;BME280;13479;49.044;8.716;2023-07-31T11:21:52;98721.81;;;29.06;33.24
25610;BME280;13479;49.044;8.716;2023-07-31T11:24:18;98716.75;;;29.20;33.61
25610;BME280;13479;49.044;8.716;2023-07-31T11:26:52;98715.31;;;29.50;33.43
25610;BME280;13479;49.044;8.716;2023-07-31T11:29:20;98731.13;;;29.43;33.00
25610;BME280;13479;49.044;8.716;2023-07-31T11:31:52;98727.06;;;29.51;33.00
25610;BME280;13479;49.044;8.716;2023-07-31T11:34:17;98736.72;;;29.26;32.97
25610;BME280;13479;49.044;8.716;2023-07-31T11:36:55;98730.66;;;29.19;33.51
25610;BME280;13479;49.044;8.716;2023-07-31T11:39:20;98729.19;;;29.06;33.45
25610;BME280;13479;49.044;8.716;2023-07-31T11:41:45;98713.06;;;29.04;34.01
25610;BME280;13479;49.044;8.716;2023-07-31T11:44:11;98697.03;;;29.18;33.93
25610;BME280;13479;49.044;8.716;2023-07-31T11:46:36;98722.78;;;29.27;33.26
25610;BME280;13479;49.044;8.716;2023-07-31T11:49:01;98727.31;;;29.44;33.11
25610;BME280;13479;49.044;8.716;2023-07-31T11:51:28;98731.59;;;29.35;32.85
25610;BME280;13479;49.044;8.716;2023-07-31T11:53:57;98721.72;;;29.28;33.45
25610;BME280;13479;49.044;8.716;2023-07-31T11:56:24;98698.44;;;28.88;33.53
25610;BME280;13479;49.044;8.716;2023-07-31T11:58:53;98690.53;;;28.59;34.58
25610;BME280;13479;49.044;8.716;2023-07-31T12:01:21;98679.25;;;28.78;34.70
25610;BME280;13479;49.044;8.716;2023-07-31T12:03:48;98683.84;;;28.72;34.04
25610;BME280;13479;49.044;8.716;2023-07-31T12:06:14;98692.47;;;28.64;34.33
25610;BME280;13479;49.044;8.716;2023-07-31T12:08:39;98686.44;;;28.29;34.10
25610;BME280;13479;49.044;8.716;2023-07-31T12:11:06;98674.56;;;28.46;34.42
25610;BME280;13479;49.044;8.716;2023-07-31T12:13:32;98675.66;;;28.45;34.03
25610;BME280;13479;49.044;8.716;2023-07-31T12:16:00;98663.44;;;28.80;34.45
25610;BME280;13479;49.044;8.716;2023-07-31T12:18:27;98660.66;;;29.12;34.10
25610;BME280;13479;49.044;8.716;2023-07-31T12:20:57;98656.19;;;29.39;34.57
25610;BME280;13479;49.044;8.716;2023-07-31T12:23:25;98666.38;;;29.54;34.08
25610;BME280;13479;49.044;8.716;2023-07-31T12:26:11;98684.09;;;29.41;33.47
25610;BME280;13479;49.044;8.716;2023-07-31T12:28:39;98677.38;;;29.64;33.76
25610;BME280;13479;49.044;8.716;2023-07-31T12:31:05;98678.81;;;29.82;33.41
25610;BME280;13479;49.044;8.716;2023-07-31T12:33:33;98697.41;;;29.80;32.81
25610;BME280;13479;49.044;8.716;2023-07-31T12:36:01;98699.47;;;29.52;33.01
25610;BME280;13479;49.044;8.716;2023-07-31T12:38:27;98692.41;;;29.67;33.33
25610;BME280;13479;49.044;8.716;2023-07-31T12:40:52;98685.31;;;29.66;33.18
25610;BME280;13479;49.044;8.716;2023-07-31T12:43:17;98682.03;;;29.64;33.07
25610;BME280;13479;49.044;8.716;2023-07-31T12:45:42;98685.91;;;29.78;33.26
25610;BME280;13479;49.044;8.716;2023-07-31T12:48:08;98676.16;;;29.98;32.81
25610;BME280;13479;49.044;8.716;2023-07-31T12:50:33;98677.81;;;29.99;32.71
25610;BME280;13479;49.044;8.716;2023-07-31T12:53:01;98679.66;;;29.88;32.76
25610;BME280;13479;49.044;8.716;2023-07-31T12:55:28;98660.78;;;29.86;33.15
25610;BME280;13479;49.044;8.716;2023-07-31T12:57:53;98656.69;;;29.89;33.48
25610;BME280;13479;49.044;8.716;2023-07-31T13:00:18;98649.81;;;29.81;33.52
25610;BME280;13479;49.044;8.716;2023-07-31T13:02:44;98640.72;;;29.65;33.38
25610;BME280;13479;49.044;8.716;2023-07-31T13:05:09;98639.88;;;29.54;34.15
25610;BME280;13479;49.044;8.716;2023-07-31T13:07:34;98628.34;;;29.42;34.35
25610;BME280;13479;49.044;8.716;2023-07-31T13:10:00;98635.13;;;29.34;33.21
25610;BME280;13479;49.044;8.716;2023-07-31T13:12:25;98632.66;;;29.38;33.59
25610;BME280;13479;49.044;8.716;2023-07-31T13:14:50;98620.13;;;29.42;34.10
25610;BME280;13479;49.044;8.716;2023-07-31T13:17:16;98605.91;;;29.45;34.05
25610;BME280;13479;49.044;8.716;2023-07-31T13:19:42;98602.72;;;29.64;34.67
25610;BME280;13479;49.044;8.716;2023-07-31T13:22:07;98607.41;;;29.84;34.80
25610;BME280;13479;49.044;8.716;2023-07-31T13:24:33;98613.69;;;29.79;34.26
25610;BME280;13479;49.044;8.716;2023-07-31T13:26:58;98606.59;;;29.83;34.19
25610;BME280;13479;49.044;8.716;2023-07-31T13:29:23;98610.94;;;29.74;33.84
25610;BME280;13479;49.044;8.716;2023-07-31T13:31:49;98620.13;;;29.42;33.84
25610;BME280;13479;49.044;8.716;2023-07-31T13:34:14;98598.25;;;29.42;34.82
25610;BME280;13479;49.044;8.716;2023-07-31T13:36:39;98596.03;;;29.39;34.86
25610;BME280;13479;49.044;8.716;2023-07-31T13:39:05;98596.50;;;29.25;34.54
25610;BME280;13479;49.044;8.716;2023-07-31T13:41:30;98594.44;;;29.43;34.56
25610;BME280;13479;49.044;8.716;2023-07-31T13:43:55;98588.31;;;29.25;34.45
25610;BME280;13479;49.044;8.716;2023-07-31T13:46:20;98580.78;;;29.00;35.11
25610;BME280;13479;49.044;8.716;2023-07-31T13:48:46;98569.63;;;29.07;35.64
25610;BME280;13479;49.044;8.716;2023-07-31T13:51:11;98575.63;;;29.04;35.14
25610;BME280;13479;49.044;8.716;2023-07-31T13:53:36;98559.41;;;28.87;35.18
25610;BME280;13479;49.044;8.716;2023-07-31T13:56:02;98554.16;;;28.80;35.07
25610;BME280;13479;49.044;8.716;2023-07-31T13:58:27;98559.75;;;28.63;35.51
25610;BME280;13479;49.044;8.716;2023-07-31T14:00:52;98543.03;;;28.49;35.40
25610;BME280;13479;49.044;8.716;2023-07-31T14:03:18;98539.13;;;28.40;36.09
25610;BME280;13479;49.044;8.716;2023-07-31T14:05:43;98540.50;;;28.37;36.10
25610;BME280;13479;49.044;8.716;2023-07-31T14:08:08;98534.78;;;28.44;36.31
25610;BME280;13479;49.044;8.716;2023-07-31T14:10:33;98529.41;;;28.54;36.15
25610;BME280;13479;49.044;8.716;2023-07-31T14:12:58;98535.63;;;28.44;36.15
25610;BME280;13479;49.044;8.716;2023-07-31T14:15:24;98538.00;;;28.35;36.79
25610;BME280;13479;49.044;8.716;2023-07-31T14:17:49;98539.88;;;28.30;36.04
25610;BME280;13479;49.044;8.716;2023-07-31T14:20:14;98538.50;;;28.27;36.37
25610;BME280;13479;49.044;8.716;2023-07-31T14:22:40;98548.41;;;28.39;36.78
25610;BME280;13479;49.044;8.716;2023-07-31T14:25:05;98550.78;;;28.30;36.55
25610;BME280;13479;49.044;8.716;2023-07-31T14:27:30;98549.31;;;28.17;36.34
25610;BME280;13479;49.044;8.716;2023-07-31T14:29:56;98535.91;;;27.88;37.28
25610;BME280;13479;49.044;8.716;2023-07-31T14:32:24;98529.97;;;27.64;37.39
25610;BME280;13479;49.044;8.716;2023-07-31T14:34:51;98533.94;;;27.51;37.64
25610;BME280;13479;49.044;8.716;2023-07-31T14:37:16;98527.78;;;27.43;37.39
25610;BME280;13479;49.044;8.716;2023-07-31T14:39:41;98529.78;;;27.26;38.29
25610;BME280;13479;49.044;8.716;2023-07-31T14:42:06;98517.63;;;27.11;38.25
25610;BME280;13479;49.044;8.716;2023-07-31T14:44:32;98529.91;;;26.92;38.78
25610;BME280;13479;49.044;8.716;2023-07-31T14:46:57;98526.72;;;26.61;38.90
25610;BME280;13479;49.044;8.716;2023-07-31T14:49:23;98515.16;;;26.54;39.59
25610;BME280;13479;49.044;8.716;2023-07-31T14:51:48;98498.69;;;26.43;39.73
25610;BME280;13479;49.044;8.716;2023-07-31T14:54:14;98497.19;;;26.52;39.82
25610;BME280;13479;49.044;8.716;2023-07-31T14:56:39;98487.38;;;26.51;39.72
25610;BME280;13479;49.044;8.716;2023-07-31T14:59:04;98477.59;;;26.50;40.04
25610;BME280;13479;49.044;8.716;2023-07-31T15:01:29;98474.38;;;26.76;40.10
25610;BME280;13479;49.044;8.716;2023-07-31T15:03:55;98475.47;;;26.97;39.57
25610;BME280;13479;49.044;8.716;2023-07-31T15:06:20;98480.38;;;27.17;39.37
25610;BME280;13479;49.044;8.716;2023-07-31T15:08:45;98498.09;;;27.42;38.54
25610;BME280;13479;49.044;8.716;2023-07-31T15:11:12;98491.81;;;27.41;38.71
25610;BME280;13479;49.044;8.716;2023-07-31T15:13:37;98487.53;;;27.46;39.10
25610;BME280;13479;49.044;8.716;2023-07-31T15:16:02;98482.16;;;27.56;39.00
25610;BME280;13479;49.044;8.716;2023-07-31T15:18:27;98492.03;;;27.35;39.10
25610;BME280;13479;49.044;8.716;2023-07-31T15:20:53;98482.69;;;27.53;38.68
25610;BME280;13479;49.044;8.716;2023-07-31T15:23:18;98474.31;;;27.37;38.81
25610;BME280;13479;49.044;8.716;2023-07-31T15:25:44;98463.13;;;27.34;39.16
25610;BME280;13479;49.044;8.716;2023-07-31T15:28:09;98462.28;;;27.33;39.16
25610;BME280;13479;49.044;8.716;2023-07-31T15:30:36;98447.66;;;27.39;39.29
25610;BME280;13479;49.044;8.716;2023-07-31T15:33:02;98454.22;;;27.43;38.75
25610;BME280;13479;49.044;8.716;2023-07-31T15:35:27;98447.50;;;27.51;38.83
25610;BME280;13479;49.044;8.716;2023-07-31T15:37:52;98427.50;;;27.40;39.38
25610;BME280;13479;49.044;8.716;2023-07-31T15:40:17;98425.69;;;27.51;39.15
25610;BME280;13479;49.044;8.716;2023-07-31T15:42:43;98440.03;;;27.41;39.02
25610;BME280;13479;49.044;8.716;2023-07-31T15:45:08;98438.91;;;27.37;38.89
25610;BME280;13479;49.044;8.716;2023-07-31T15:47:35;98432.88;;;27.35;39.72
25610;BME280;13479;49.044;8.716;2023-07-31T15:50:00;98426.28;;;27.31;39.96
25610;BME280;13479;49.044;8.716;2023-07-31T15:52:26;98429.06;;;27.36;39.28
25610;BME280;13479;49.044;8.716;2023-07-31T15:54:51;98420.50;;;27.22;39.88
25610;BME280;13479;49.044;8.716;2023-07-31T15:57:17;98426.03;;;27.05;40.10
25610;BME280;13479;49.044;8.716;2023-07-31T15:59:42;98433.28;;;26.77;40.77
25610;BME280;13479;49.044;8.716;2023-07-31T16:02:09;98429.44;;;26.73;40.73
25610;BME280;13479;49.044;8.716;2023-07-31T16:04:36;98429.44;;;26.73;41.01
25610;BME280;13479;49.044;8.716;2023-07-31T16:07:01;98427.56;;;26.57;41.29
25610;BME280;13479;49.044;8.716;2023-07-31T16:09:27;98422.63;;;26.54;41.55
25610;BME280;13479;49.044;8.716;2023-07-31T16:11:52;98415.53;;;26.52;41.88
25610;BME280;13479;49.044;8.716;2023-07-31T16:14:18;98416.78;;;26.62;42.51
25610;BME280;13479;49.044;8.716;2023-07-31T16:16:43;98421.78;;;26.70;41.80
25610;BME280;13479;49.044;8.716;2023-07-31T16:19:08;98413.53;;;26.65;42.26
25610;BME280;13479;49.044;8.716;2023-07-31T16:21:34;98418.91;;;26.60;42.18
25610;BME280;13479;49.044;8.716;2023-07-31T16:23:59;98416.44;;;26.58;42.13
25610;BME280;13479;49.044;8.716;2023-07-31T16:26:24;98413.22;;;26.39;42.49
25610;BME280;13479;49.044;8.716;2023-07-31T16:28:49;98413.38;;;26.55;42.31
25610;BME280;13479;49.044;8.716;2023-07-31T16:31:15;98403.63;;;26.36;42.90
25610;BME280;13479;49.044;8.716;2023-07-31T16:33:40;98402.69;;;26.26;42.82
25610;BME280;13479;49.044;8.716;2023-07-31T16:36:05;98397.47;;;26.24;42.99
25610;BME280;13479;49.044;8.716;2023-07-31T16:38:30;98395.44;;;26.14;43.15
25610;BME280;13479;49.044;8.716;2023-07-31T16:40:56;98385.69;;;26.01;43.69
25610;BME280;13479;49.044;8.716;2023-07-31T16:43:22;98384.28;;;25.99;43.76
25610;BME280;13479;49.044;8.716;2023-07-31T16:45:47;98379.88;;;25.93;43.63
25610;BME280;13479;49.044;8.716;2023-07-31T16:48:12;98377.91;;;25.54;44.50
25610;BME280;13479;49.044;8.716;2023-07-31T16:50:37;98367.75;;;25.49;44.58
25610;BME280;13479;49.044;8.716;2023-07-31T16:53:03;98367.47;;;25.34;45.03
25610;BME280;13479;49.044;8.716;2023-07-31T16:55:28;98363.31;;;25.14;45.43
25610;BME280;13479;49.044;8.716;2023-07-31T16:57:54;98368.91;;;25.07;45.85
25610;BME280;13479;49.044;8.716;2023-07-31T17:00:21;98359.50;;;24.98;45.95